createdAt,value
2019-02-02T00:00:48.216Z,98817.26
2019-02-02T00:01:58.851Z,98809.16
2019-02-02T00:03:03.333Z,98812.20
2019-02-02T00:04:08.735Z,98818.64
2019-02-02T00:05:13.806Z,98820.31
2019-02-02T00:06:18.391Z,98820.78
2019-02-02T00:07:23.161Z,98815.76
2019-02-02T00:08:28.917Z,98813.69
2019-02-02T00:09:34.058Z,98815.39
2019-02-02T00:10:38.807Z,98809.04
2019-02-02T00:11:43.564Z,98806.88
2019-02-02T00:12:48.036Z,98811.15
2019-02-02T00:13:52.847Z,98803.55
2019-02-02T00:14:58.028Z,98802.24
2019-02-02T00:16:03.493Z,98805.25
2019-02-02T00:17:08.268Z,98808.23
2019-02-02T00:18:13.046Z,98800.16
2019-02-02T00:19:17.885Z,98801.91
2019-02-02T00:20:22.719Z,98799.77
2019-02-02T00:21:28.184Z,98798.90
2019-02-02T00:22:32.935Z,98805.31
2019-02-02T00:23:38.103Z,98800.62
2019-02-02T00:24:43.147Z,98809.55
2019-02-02T00:25:48.740Z,98806.14
2019-02-02T00:26:53.505Z,98805.73
2019-02-02T00:27:58.816Z,98809.55
2019-02-02T00:29:03.292Z,98815.92
2019-02-02T00:30:09.114Z,98816.39
2019-02-02T00:31:14.599Z,98823.16
2019-02-02T00:32:19.357Z,98826.14
2019-02-02T00:33:24.179Z,98821.84
2019-02-02T00:34:28.963Z,98824.84
2019-02-02T00:35:33.529Z,98818.06
2019-02-02T00:36:38.689Z,98824.91
2019-02-02T00:37:43.500Z,98816.80
2019-02-02T00:38:48.670Z,98817.93
2019-02-02T00:39:53.560Z,98815.06
2019-02-02T00:40:58.725Z,98813.87
2019-02-02T00:42:04.190Z,98818.34
2019-02-02T00:43:09.389Z,98811.16
2019-02-02T00:44:14.521Z,98815.45
2019-02-02T00:45:19.412Z,98814.56
2019-02-02T00:46:24.698Z,98808.66
2019-02-02T00:47:29.514Z,98812.54
2019-02-02T00:48:34.380Z,98803.17
2019-02-02T00:49:39.463Z,98802.31
2019-02-02T00:50:44.053Z,98798.48
2019-02-02T00:51:49.167Z,98797.59
2019-02-02T00:52:54.477Z,98799.73
2019-02-02T00:53:59.281Z,98800.27
2019-02-02T00:55:04.030Z,98808.38
2019-02-02T00:56:09.110Z,98806.66
2019-02-02T00:57:13.895Z,98813.41
2019-02-02T00:58:18.675Z,98817.28
2019-02-02T00:59:24.314Z,98810.48
2019-02-02T01:00:30.361Z,98816.34
2019-02-02T01:01:35.924Z,98817.19
2019-02-02T01:02:40.698Z,98811.27
2019-02-02T01:03:45.608Z,98814.27
2019-02-02T01:04:50.488Z,98812.55
2019-02-02T01:05:55.567Z,98815.58
2019-02-02T01:07:00.358Z,98812.63
2019-02-02T01:08:05.405Z,98816.06
2019-02-02T01:09:19.778Z,98810.84
2019-02-02T01:10:27.601Z,98810.45
2019-02-02T01:11:33.066Z,98810.03
2019-02-02T01:12:38.270Z,98817.65
2019-02-02T01:13:43.355Z,98807.01
2019-02-02T01:14:47.833Z,98815.58
2019-02-02T01:15:53.197Z,98813.48
2019-02-02T01:16:57.967Z,98815.53
2019-02-02T01:18:02.851Z,98816.77
2019-02-02T01:19:07.603Z,98817.65
2019-02-02T01:20:12.112Z,98812.63
2019-02-02T01:21:17.182Z,98812.04
2019-02-02T01:22:22.426Z,98815.02
2019-02-02T01:23:27.564Z,98818.45
2019-02-02T01:24:32.328Z,98820.16
2019-02-02T01:25:37.461Z,98827.75
2019-02-02T01:26:42.619Z,98827.81
2019-02-02T01:27:47.467Z,98827.80
2019-02-02T01:28:52.246Z,98824.02
2019-02-02T01:29:56.809Z,98826.59
2019-02-02T01:31:01.587Z,98821.03
2019-02-02T01:32:06.369Z,98821.86
2019-02-02T01:33:11.124Z,98824.50
2019-02-02T01:36:10.250Z,98826.98
2019-02-02T01:37:15.345Z,98818.46
2019-02-02T01:38:20.512Z,98823.53
2019-02-02T01:39:28.367Z,98824.02
2019-02-02T01:40:32.860Z,98826.59
2019-02-02T01:41:37.378Z,98830.33
2019-02-02T01:42:42.155Z,98832.97
2019-02-02T01:43:47.221Z,98832.41
2019-02-02T01:44:52.052Z,98832.84
2019-02-02T01:45:57.321Z,98835.83
2019-02-02T01:47:02.084Z,98837.93
2019-02-02T01:48:07.000Z,98833.30
2019-02-02T01:49:11.675Z,98837.52
2019-02-02T01:50:17.781Z,98835.84
2019-02-02T01:51:22.526Z,98831.61
2019-02-02T01:52:28.041Z,98833.80
2019-02-02T01:53:33.173Z,98838.52
2019-02-02T01:54:40.511Z,98835.92
2019-02-02T01:55:45.669Z,98835.94
2019-02-02T01:56:50.163Z,98838.07
2019-02-02T01:57:54.946Z,98835.98
2019-02-02T01:59:00.145Z,98833.44
2019-02-02T02:00:05.789Z,98841.49
2019-02-02T02:01:10.895Z,98838.53
2019-02-02T02:02:15.644Z,98836.81
2019-02-02T02:03:20.725Z,98832.16
2019-02-02T02:04:25.897Z,98834.29
2019-02-02T02:05:31.171Z,98833.92
2019-02-02T02:06:36.317Z,98839.80
2019-02-02T02:07:41.231Z,98832.63
2019-02-02T02:08:45.990Z,98837.71
2019-02-02T02:09:50.848Z,98841.53
2019-02-02T02:10:58.232Z,98843.19
2019-02-02T02:12:03.175Z,98841.50
2019-02-02T02:13:07.953Z,98835.94
2019-02-02T02:14:12.561Z,98841.89
2019-02-02T02:15:17.602Z,98847.39
2019-02-02T02:16:22.180Z,98847.84
2019-02-02T02:17:26.762Z,98845.30
2019-02-02T02:18:31.674Z,98852.49
2019-02-02T02:19:36.454Z,98855.94
2019-02-02T02:20:41.238Z,98850.79
2019-02-02T02:21:46.016Z,98852.08
2019-02-02T02:22:50.506Z,98849.09
2019-02-02T02:23:55.310Z,98853.00
2019-02-02T02:25:00.871Z,98852.13
2019-02-02T02:26:05.483Z,98848.72
2019-02-02T02:27:10.064Z,98852.16
2019-02-02T02:28:14.837Z,98852.13
2019-02-02T02:29:19.316Z,98849.55
2019-02-02T02:30:24.274Z,98851.67
2019-02-02T02:31:29.074Z,98853.75
2019-02-02T02:32:33.826Z,98858.42
2019-02-02T02:33:38.972Z,98857.95
2019-02-02T02:34:43.738Z,98854.17
2019-02-02T02:35:48.771Z,98860.53
2019-02-02T02:36:53.863Z,98861.41
2019-02-02T02:37:58.628Z,98859.70
2019-02-02T02:39:03.386Z,98858.42
2019-02-02T02:40:09.222Z,98855.89
2019-02-02T02:41:14.438Z,98858.86
2019-02-02T02:42:18.958Z,98852.06
2019-02-02T02:43:24.069Z,98862.22
2019-02-02T02:44:29.336Z,98858.86
2019-02-02T02:45:33.821Z,98863.04
2019-02-02T02:46:38.596Z,98864.31
2019-02-02T02:47:43.485Z,98863.87
2019-02-02T02:48:48.598Z,98870.72
2019-02-02T02:49:53.695Z,98865.61
2019-02-02T02:50:58.830Z,98866.50
2019-02-02T02:52:04.335Z,98860.59
2019-02-02T02:53:09.114Z,98863.12
2019-02-02T02:54:13.742Z,98863.02
2019-02-02T02:55:18.517Z,98863.91
2019-02-02T02:56:23.006Z,98863.09
2019-02-02T02:57:27.796Z,98858.83
2019-02-02T02:58:41.105Z,98861.84
2019-02-02T02:59:39.565Z,98860.97
2019-02-02T03:00:44.996Z,98862.55
2019-02-02T03:01:49.492Z,98864.28
2019-02-02T03:02:54.689Z,98861.74
2019-02-02T03:03:59.584Z,98861.30
2019-02-02T03:05:04.358Z,98863.06
2019-02-02T03:06:09.153Z,98870.67
2019-02-02T03:07:14.301Z,98865.60
2019-02-02T03:08:18.815Z,98866.83
2019-02-02T03:09:23.374Z,98866.77
2019-02-02T03:10:28.136Z,98870.59
2019-02-02T03:11:33.279Z,98865.97
2019-02-02T03:12:37.761Z,98872.75
2019-02-02T03:13:42.881Z,98864.68
2019-02-02T03:14:48.364Z,98869.38
2019-02-02T03:15:53.514Z,98868.92
2019-02-02T03:16:58.623Z,98876.11
2019-02-02T03:18:03.375Z,98881.59
2019-02-02T03:19:08.805Z,98880.02
2019-02-02T03:20:14.402Z,98888.16
2019-02-02T03:21:19.823Z,98893.58
2019-02-02T03:22:24.924Z,98893.45
2019-02-02T03:23:29.734Z,98895.10
2019-02-02T03:24:34.820Z,98899.20
2019-02-02T03:25:40.391Z,98901.42
2019-02-02T03:26:45.470Z,98904.41
2019-02-02T03:27:50.414Z,98907.45
2019-02-02T03:28:55.588Z,98906.14
2019-02-02T03:30:00.352Z,98903.67
2019-02-02T03:31:05.113Z,98904.95
2019-02-02T03:32:09.586Z,98895.25
2019-02-02T03:33:15.154Z,98897.34
2019-02-02T03:34:19.953Z,98900.76
2019-02-02T03:35:24.834Z,98898.21
2019-02-02T03:36:29.604Z,98902.89
2019-02-02T03:37:34.365Z,98905.44
2019-02-02T03:38:39.233Z,98903.33
2019-02-02T03:39:44.783Z,98901.20
2019-02-02T03:40:49.887Z,98902.45
2019-02-02T03:41:54.636Z,98904.97
2019-02-02T03:42:59.466Z,98898.09
2019-02-02T03:44:04.287Z,98891.83
2019-02-02T03:45:08.922Z,98897.31
2019-02-02T03:46:13.686Z,98896.48
2019-02-02T03:47:19.102Z,98891.84
2019-02-02T03:48:24.919Z,98890.63
2019-02-02T03:49:30.227Z,98891.06
2019-02-02T03:50:34.943Z,98892.75
2019-02-02T03:51:40.411Z,98887.17
2019-02-02T03:52:45.537Z,98884.65
2019-02-02T03:53:50.319Z,98884.26
2019-02-02T03:54:55.110Z,98888.58
2019-02-02T03:55:59.883Z,98888.98
2019-02-02T03:57:05.031Z,98894.95
2019-02-02T03:58:10.613Z,98898.70
2019-02-02T03:59:15.631Z,98897.78
2019-02-02T04:00:21.641Z,98894.48
2019-02-02T04:01:26.280Z,98897.41
2019-02-02T04:02:31.160Z,98901.20
2019-02-02T04:03:35.910Z,98903.33
2019-02-02T04:04:40.375Z,98902.47
2019-02-02T04:05:45.147Z,98901.55
2019-02-02T04:06:50.225Z,98904.50
2019-02-02T04:07:54.753Z,98902.83
2019-02-02T04:08:59.912Z,98903.20
2019-02-02T04:10:04.897Z,98907.92
2019-02-02T04:11:09.374Z,98908.33
2019-02-02T04:12:15.977Z,98909.61
2019-02-02T04:13:20.727Z,98913.92
2019-02-02T04:14:27.680Z,98911.84
2019-02-02T04:15:32.529Z,98921.64
2019-02-02T04:16:37.315Z,98918.63
2019-02-02T04:17:42.110Z,98919.79
2019-02-02T04:18:47.261Z,98922.28
2019-02-02T04:19:51.772Z,98927.05
2019-02-02T04:20:56.832Z,98924.09
2019-02-02T04:22:01.605Z,98927.59
2019-02-02T04:23:06.407Z,98925.94
2019-02-02T04:24:11.503Z,98924.23
2019-02-02T04:25:16.337Z,98922.89
2019-02-02T04:26:21.241Z,98929.23
2019-02-02T04:27:26.452Z,98923.70
2019-02-02T04:28:31.237Z,98924.09
2019-02-02T04:29:36.375Z,98928.81
2019-02-02T04:30:41.485Z,98922.80
2019-02-02T04:31:46.759Z,98921.88
2019-02-02T04:32:51.598Z,98923.61
2019-02-02T04:33:56.847Z,98916.78
2019-02-02T04:35:02.082Z,98921.14
2019-02-02T04:36:06.990Z,98914.78
2019-02-02T04:37:12.431Z,98916.88
2019-02-02T04:38:17.356Z,98913.86
2019-02-02T04:39:22.416Z,98910.87
2019-02-02T04:40:27.479Z,98912.67
2019-02-02T04:41:32.614Z,98908.81
2019-02-02T04:42:37.202Z,98916.94
2019-02-02T04:43:42.132Z,98916.06
2019-02-02T04:44:46.609Z,98908.42
2019-02-02T04:45:51.364Z,98908.41
2019-02-02T04:46:56.121Z,98912.24
2019-02-02T04:48:01.254Z,98911.85
2019-02-02T04:49:06.081Z,98913.17
2019-02-02T04:50:13.096Z,98916.50
2019-02-02T04:51:18.008Z,98918.23
2019-02-02T04:52:22.768Z,98922.41
2019-02-02T04:53:27.911Z,98924.13
2019-02-02T04:54:33.039Z,98921.98
2019-02-02T04:55:38.502Z,98922.35
2019-02-02T04:56:43.685Z,98924.96
2019-02-02T04:57:48.876Z,98924.20
2019-02-02T04:58:53.625Z,98923.41
2019-02-02T04:59:58.960Z,98918.28
2019-02-02T05:01:03.880Z,98914.83
2019-02-02T05:02:08.714Z,98920.41
2019-02-02T05:03:13.494Z,98922.56
2019-02-02T05:04:18.128Z,98920.05
2019-02-02T05:05:23.322Z,98922.55
2019-02-02T05:06:28.113Z,98924.25
2019-02-02T05:07:33.275Z,98920.85
2019-02-02T05:08:38.040Z,98915.80
2019-02-02T05:09:43.011Z,98922.56
2019-02-02T05:10:47.637Z,98922.50
2019-02-02T05:11:52.147Z,98927.17
2019-02-02T05:12:56.633Z,98925.52
2019-02-02T05:14:02.138Z,98928.40
2019-02-02T05:15:07.362Z,98931.82
2019-02-02T05:16:11.841Z,98931.45
2019-02-02T05:17:16.621Z,98932.33
2019-02-02T05:18:21.755Z,98933.58
2019-02-02T05:19:26.716Z,98938.64
2019-02-02T05:20:31.919Z,98934.28
2019-02-02T05:21:37.080Z,98932.65
2019-02-02T05:22:42.177Z,98931.14
2019-02-02T05:23:47.620Z,98934.59
2019-02-02T05:24:52.098Z,98933.75
2019-02-02T05:25:57.484Z,98934.58
2019-02-02T05:27:02.273Z,98935.00
2019-02-02T05:28:07.367Z,98932.02
2019-02-02T05:29:12.497Z,98931.08
2019-02-02T05:30:20.064Z,98938.41
2019-02-02T05:31:24.932Z,98936.23
2019-02-02T05:32:30.017Z,98937.14
2019-02-02T05:33:34.788Z,98933.30
2019-02-02T05:34:39.855Z,98935.36
2019-02-02T05:35:45.053Z,98940.48
2019-02-02T05:36:50.156Z,98937.55
2019-02-02T05:37:55.298Z,98939.16
2019-02-02T05:39:00.772Z,98942.59
2019-02-02T05:40:06.215Z,98940.87
2019-02-02T05:41:11.449Z,98935.77
2019-02-02T05:42:16.237Z,98942.17
2019-02-02T05:43:21.058Z,98937.05
2019-02-02T05:44:25.900Z,98937.12
2019-02-02T05:45:30.385Z,98942.61
2019-02-02T05:46:35.315Z,98945.59
2019-02-02T05:47:40.064Z,98942.19
2019-02-02T05:48:44.570Z,98942.16
2019-02-02T05:49:49.821Z,98942.25
2019-02-02T05:50:55.405Z,98946.38
2019-02-02T05:52:00.386Z,98949.39
2019-02-02T05:53:05.156Z,98948.92
2019-02-02T05:54:10.031Z,98951.02
2019-02-02T05:55:15.103Z,98954.09
2019-02-02T05:56:19.572Z,98953.70
2019-02-02T05:57:25.472Z,98948.14
2019-02-02T05:58:31.052Z,98949.41
2019-02-02T05:59:36.582Z,98951.92
2019-02-02T06:00:47.727Z,98949.39
2019-02-02T06:01:52.529Z,98949.32
2019-02-02T06:02:57.671Z,98949.81
2019-02-02T06:04:02.487Z,98947.20
2019-02-02T06:05:06.975Z,98953.20
2019-02-02T06:06:11.743Z,98951.98
2019-02-02T06:07:16.565Z,98960.86
2019-02-02T06:08:21.307Z,98956.09
2019-02-02T06:09:28.916Z,98953.54
2019-02-02T06:10:34.078Z,98954.86
2019-02-02T06:11:39.201Z,98958.63
2019-02-02T06:12:44.037Z,98959.52
2019-02-02T06:13:48.695Z,98963.87
2019-02-02T06:14:53.754Z,98964.27
2019-02-02T06:15:59.860Z,98965.48
2019-02-02T06:17:04.654Z,98966.41
2019-02-02T06:18:09.420Z,98966.70
2019-02-02T06:19:14.777Z,98963.72
2019-02-02T06:20:19.555Z,98972.33
2019-02-02T06:21:24.741Z,98967.23
2019-02-02T06:22:29.504Z,98973.20
2019-02-02T06:23:34.884Z,98971.95
2019-02-02T06:24:40.097Z,98974.09
2019-02-02T06:25:45.006Z,98970.77
2019-02-02T06:26:50.217Z,98969.08
2019-02-02T06:27:55.320Z,98973.31
2019-02-02T06:28:59.939Z,98974.16
2019-02-02T06:30:06.247Z,98977.13
2019-02-02T06:31:11.534Z,98980.11
2019-02-02T06:32:17.453Z,98979.27
2019-02-02T06:33:22.521Z,98983.05
2019-02-02T06:34:27.246Z,98984.77
2019-02-02T06:35:32.346Z,98985.27
2019-02-02T06:36:37.463Z,98989.09
2019-02-02T06:37:42.569Z,98988.58
2019-02-02T06:38:48.278Z,98997.08
2019-02-02T06:39:53.038Z,98997.57
2019-02-02T06:40:57.769Z,98996.64
2019-02-02T06:42:02.261Z,98999.63
2019-02-02T06:43:07.363Z,98997.55
2019-02-02T06:44:12.180Z,98999.31
2019-02-02T06:45:25.608Z,98997.63
2019-02-02T06:46:31.115Z,99004.84
2019-02-02T06:47:36.340Z,99000.07
2019-02-02T06:48:41.848Z,99005.08
2019-02-02T06:49:46.350Z,99008.98
2019-02-02T06:50:50.932Z,99008.53
2019-02-02T06:51:55.714Z,99008.97
2019-02-02T06:53:00.815Z,99012.33
2019-02-02T06:54:06.001Z,99015.73
2019-02-02T06:55:11.701Z,99019.92
2019-02-02T06:56:17.239Z,99011.93
2019-02-02T06:57:21.987Z,99017.86
2019-02-02T06:58:26.823Z,99014.89
2019-02-02T06:59:31.811Z,99016.98
2019-02-02T07:00:36.569Z,99023.76
2019-02-02T07:01:41.060Z,99025.53
2019-02-02T07:02:45.962Z,99029.29
2019-02-02T07:03:50.747Z,99024.15
2019-02-02T07:04:55.544Z,99029.31
2019-02-02T07:06:01.116Z,99032.70
2019-02-02T07:07:05.964Z,99030.14
2019-02-02T07:08:10.787Z,99036.51
2019-02-02T07:09:15.552Z,99031.88
2019-02-02T07:10:25.102Z,99034.80
2019-02-02T07:11:29.617Z,99042.48
2019-02-02T07:12:34.365Z,99046.34
2019-02-02T07:13:39.139Z,99050.55
2019-02-02T07:14:44.206Z,99055.23
2019-02-02T07:15:48.709Z,99052.67
2019-02-02T07:16:53.444Z,99056.47
2019-02-02T07:17:58.272Z,99051.41
2019-02-02T07:19:03.120Z,99054.00
2019-02-02T07:20:09.460Z,99057.38
2019-02-02T07:21:14.153Z,99062.70
2019-02-02T07:22:19.056Z,99058.06
2019-02-02T07:23:26.830Z,99055.16
2019-02-02T07:24:31.593Z,99052.66
2019-02-02T07:25:37.069Z,99051.83
2019-02-02T07:26:42.561Z,99054.87
2019-02-02T07:27:48.559Z,99053.55
2019-02-02T07:28:53.036Z,99061.86
2019-02-02T07:29:58.187Z,99055.95
2019-02-02T07:31:03.291Z,99056.33
2019-02-02T07:32:07.855Z,99061.13
2019-02-02T07:33:12.805Z,99050.84
2019-02-02T07:34:17.626Z,99049.61
2019-02-02T07:35:22.425Z,99058.83
2019-02-02T07:36:27.275Z,99060.52
2019-02-02T07:37:32.464Z,99056.67
2019-02-02T07:38:37.428Z,99057.99
2019-02-02T07:39:42.579Z,99052.17
2019-02-02T07:40:47.575Z,99055.64
2019-02-02T07:41:52.424Z,99053.45
2019-02-02T07:42:57.227Z,99055.09
2019-02-02T07:44:02.041Z,99053.34
2019-02-02T07:45:09.190Z,99059.31
2019-02-02T07:46:15.003Z,99067.18
2019-02-02T07:47:19.862Z,99072.23
2019-02-02T07:48:25.015Z,99079.67
2019-02-02T07:49:29.785Z,99074.36
2019-02-02T07:50:34.542Z,99077.41
2019-02-02T07:51:39.406Z,99078.69
2019-02-02T07:52:44.676Z,99075.30
2019-02-02T07:53:49.769Z,99075.80
2019-02-02T07:54:54.500Z,99079.14
2019-02-02T07:55:59.830Z,99084.75
2019-02-02T07:57:04.460Z,99083.98
2019-02-02T07:58:09.314Z,99084.73
2019-02-02T07:59:14.099Z,99087.36
2019-02-02T08:00:41.315Z,99091.64
2019-02-02T08:01:45.381Z,99095.85
2019-02-02T08:02:50.418Z,99094.84
2019-02-02T08:03:55.636Z,99095.00
2019-02-02T08:05:00.462Z,99101.43
2019-02-02T08:06:05.259Z,99100.04
2019-02-02T08:07:09.786Z,99096.21
2019-02-02T08:08:17.050Z,99105.69
2019-02-02T08:09:22.093Z,99105.63
2019-02-02T08:10:26.869Z,99105.17
2019-02-02T08:11:32.058Z,99108.20
2019-02-02T08:12:37.256Z,99116.22
2019-02-02T08:13:42.153Z,99119.20
2019-02-02T08:14:47.611Z,99117.59
2019-02-02T08:15:52.358Z,99120.55
2019-02-02T08:16:56.961Z,99119.33
2019-02-02T08:18:02.044Z,99124.89
2019-02-02T08:19:06.868Z,99127.89
2019-02-02T08:20:11.967Z,99130.86
2019-02-02T08:21:16.746Z,99133.42
2019-02-02T08:22:21.509Z,99130.02
2019-02-02T08:23:27.184Z,99129.57
2019-02-02T08:24:32.393Z,99130.00
2019-02-02T08:25:37.513Z,99133.91
2019-02-02T08:26:42.738Z,99135.62
2019-02-02T08:27:47.504Z,99138.11
2019-02-02T08:28:52.685Z,99144.48
2019-02-02T08:29:57.499Z,99147.00
2019-02-02T08:31:03.012Z,99148.75
2019-02-02T08:32:08.014Z,99150.41
2019-02-02T08:33:13.080Z,99154.29
2019-02-02T08:34:17.996Z,99154.33
2019-02-02T08:35:23.080Z,99157.32
2019-02-02T08:36:27.854Z,99153.12
2019-02-02T08:37:33.118Z,99158.22
2019-02-02T08:38:37.896Z,99156.96
2019-02-02T08:39:42.981Z,99156.84
2019-02-02T08:40:48.188Z,99158.22
2019-02-02T08:41:52.988Z,99163.20
2019-02-02T08:42:58.419Z,99167.05
2019-02-02T08:44:02.936Z,99169.19
2019-02-02T08:45:08.115Z,99164.41
2019-02-02T08:46:12.868Z,99171.70
2019-02-02T08:47:18.195Z,99172.17
2019-02-02T08:48:23.433Z,99178.50
2019-02-02T08:49:28.585Z,99175.95
2019-02-02T08:50:40.035Z,99184.87
2019-02-02T08:51:45.650Z,99184.09
2019-02-02T08:52:51.053Z,99182.87
2019-02-02T08:53:56.285Z,99185.37
2019-02-02T08:55:01.930Z,99187.05
2019-02-02T08:56:07.214Z,99191.64
2019-02-02T08:57:11.971Z,99190.47
2019-02-02T08:58:19.545Z,99193.39
2019-02-02T08:59:24.794Z,99200.66
2019-02-02T09:00:29.560Z,99196.06
2019-02-02T09:01:34.314Z,99199.81
2019-02-02T09:02:39.405Z,99208.66
2019-02-02T09:03:44.867Z,99207.41
2019-02-02T09:04:49.432Z,99205.26
2019-02-02T09:05:54.339Z,99210.73
2019-02-02T09:06:58.815Z,99207.03
2019-02-02T09:08:03.295Z,99209.13
2019-02-02T09:09:10.154Z,99214.70
2019-02-02T09:10:17.081Z,99212.95
2019-02-02T09:11:22.006Z,99210.77
2019-02-02T09:12:27.188Z,99209.92
2019-02-02T09:13:32.366Z,99209.14
2019-02-02T09:14:37.109Z,99210.20
2019-02-02T09:15:41.903Z,99217.50
2019-02-02T09:16:46.776Z,99214.59
2019-02-02T09:17:51.547Z,99213.33
2019-02-02T09:18:56.251Z,99211.23
2019-02-02T09:20:01.176Z,99216.33
2019-02-02T09:21:05.673Z,99216.77
2019-02-02T09:22:10.142Z,99214.53
2019-02-02T09:23:15.508Z,99212.59
2019-02-02T09:24:19.994Z,99213.39
2019-02-02T09:25:25.134Z,99213.39
2019-02-02T09:26:29.925Z,99212.57
2019-02-02T09:27:35.002Z,99215.94
2019-02-02T09:28:39.926Z,99217.16
2019-02-02T09:29:44.463Z,99216.86
2019-02-02T09:30:51.547Z,99213.87
2019-02-02T09:31:56.641Z,99217.67
2019-02-02T09:33:01.832Z,99215.52
2019-02-02T09:34:07.083Z,99220.22
2019-02-02T09:35:11.972Z,99220.33
2019-02-02T09:36:17.158Z,99217.77
2019-02-02T09:37:22.013Z,99213.63
2019-02-02T09:38:26.915Z,99220.34
2019-02-02T09:39:31.910Z,99218.31
2019-02-02T09:40:36.646Z,99214.02
2019-02-02T09:41:41.436Z,99222.15
2019-02-02T09:42:46.247Z,99220.52
2019-02-02T09:43:51.274Z,99212.85
2019-02-02T09:44:56.056Z,99214.16
2019-02-02T09:46:00.845Z,99212.41
2019-02-02T09:47:06.051Z,99209.03
2019-02-02T09:48:10.629Z,99220.52
2019-02-02T09:49:15.289Z,99215.47
2019-02-02T09:50:21.455Z,99216.78
2019-02-02T09:51:26.373Z,99223.25
2019-02-02T09:52:31.568Z,99219.37
2019-02-02T09:53:36.319Z,99219.28
2019-02-02T09:54:41.619Z,99221.10
2019-02-02T09:55:46.718Z,99225.06
2019-02-02T09:56:51.826Z,99232.72
2019-02-02T09:58:02.359Z,99231.08
2019-02-02T09:59:09.697Z,99231.91
2019-02-02T10:00:17.338Z,99231.44
2019-02-02T10:01:27.660Z,99231.45
2019-02-02T10:02:28.909Z,99234.73
2019-02-02T10:03:33.929Z,99236.59
2019-02-02T10:04:38.709Z,99235.62
2019-02-02T10:05:43.557Z,99236.19
2019-02-02T10:06:48.316Z,99237.22
2019-02-02T10:07:52.791Z,99246.27
2019-02-02T10:08:58.052Z,99245.84
2019-02-02T10:10:02.806Z,99246.68
2019-02-02T10:11:07.959Z,99248.39
2019-02-02T10:12:12.706Z,99249.30
2019-02-02T10:13:17.494Z,99252.30
2019-02-02T10:14:22.673Z,99251.87
2019-02-02T10:15:27.171Z,99254.00
2019-02-02T10:16:31.667Z,99252.75
2019-02-02T10:17:36.427Z,99255.78
2019-02-02T10:18:41.604Z,99250.52
2019-02-02T10:19:46.192Z,99258.16
2019-02-02T10:20:51.031Z,99259.00
2019-02-02T10:21:56.185Z,99262.93
2019-02-02T10:23:01.318Z,99268.39
2019-02-02T10:24:06.126Z,99265.07
2019-02-02T10:25:12.501Z,99268.50
2019-02-02T10:26:17.080Z,99267.23
2019-02-02T10:27:22.295Z,99272.87
2019-02-02T10:28:27.419Z,99274.14
2019-02-02T10:29:32.976Z,99274.08
2019-02-02T10:30:40.050Z,99278.29
2019-02-02T10:31:45.491Z,99279.66
2019-02-02T10:32:50.603Z,99280.87
2019-02-02T10:33:55.409Z,99285.63
2019-02-02T10:35:00.194Z,99279.20
2019-02-02T10:36:04.688Z,99282.93
2019-02-02T10:37:09.814Z,99281.30
2019-02-02T10:38:14.628Z,99280.00
2019-02-02T10:39:19.401Z,99286.77
2019-02-02T10:40:23.962Z,99282.19
2019-02-02T10:41:31.471Z,99289.01
2019-02-02T10:42:35.232Z,99285.58
2019-02-02T10:43:40.427Z,99284.69
2019-02-02T10:44:45.537Z,99278.70
2019-02-02T10:45:50.326Z,99281.23
2019-02-02T10:46:54.918Z,99283.38
2019-02-02T10:48:00.008Z,99287.63
2019-02-02T10:49:04.782Z,99288.03
2019-02-02T10:50:11.423Z,99290.23
2019-02-02T10:51:16.207Z,99294.44
2019-02-02T10:52:21.312Z,99289.31
2019-02-02T10:53:26.569Z,99294.72
2019-02-02T10:54:31.896Z,99293.14
2019-02-02T10:55:37.170Z,99288.12
2019-02-02T10:56:41.979Z,99291.51
2019-02-02T10:57:49.963Z,99292.67
2019-02-02T10:58:54.888Z,99291.45
2019-02-02T10:59:59.618Z,99288.48
2019-02-02T11:01:04.396Z,99284.71
2019-02-02T11:02:09.180Z,99287.99
2019-02-02T11:03:14.304Z,99282.02
2019-02-02T11:04:19.144Z,99282.43
2019-02-02T11:05:23.737Z,99283.78
2019-02-02T11:06:28.672Z,99284.71
2019-02-02T11:07:33.181Z,99287.27
2019-02-02T11:08:38.970Z,99291.98
2019-02-02T11:09:43.429Z,99291.08
2019-02-02T11:10:48.332Z,99287.30
2019-02-02T11:11:53.167Z,99297.51
2019-02-02T11:12:57.675Z,99292.39
2019-02-02T11:14:02.500Z,99294.48
2019-02-02T11:15:09.993Z,99300.87
2019-02-02T11:16:14.722Z,99299.13
2019-02-02T11:17:19.867Z,99302.06
2019-02-02T11:18:24.622Z,99302.98
2019-02-02T11:19:29.441Z,99305.96
2019-02-02T11:20:35.579Z,99302.53
2019-02-02T11:21:40.456Z,99307.55
2019-02-02T11:22:45.249Z,99308.44
2019-02-02T11:23:50.419Z,99315.70
2019-02-02T11:24:55.261Z,99315.25
2019-02-02T11:25:59.806Z,99310.55
2019-02-02T11:27:04.288Z,99316.92
2019-02-02T11:28:08.929Z,99316.11
2019-02-02T11:29:15.457Z,99322.83
2019-02-02T11:30:20.359Z,99320.74
2019-02-02T11:31:25.966Z,99319.42
2019-02-02T11:32:31.509Z,99319.81
2019-02-02T11:33:36.283Z,99322.44
2019-02-02T11:34:41.172Z,99324.47
2019-02-02T11:35:45.939Z,99322.41
2019-02-02T11:36:50.895Z,99327.48
2019-02-02T11:37:55.652Z,99327.11
2019-02-02T11:39:00.509Z,99333.89
2019-02-02T11:40:05.466Z,99331.70
2019-02-02T11:41:10.587Z,99333.83
2019-02-02T11:42:16.324Z,99332.95
2019-02-02T11:43:21.103Z,99339.83
2019-02-02T11:44:26.289Z,99343.66
2019-02-02T11:45:30.773Z,99341.14
2019-02-02T11:46:35.561Z,99345.79
2019-02-02T11:47:41.022Z,99350.93
2019-02-02T11:48:45.788Z,99351.25
2019-02-02T11:49:50.876Z,99357.60
2019-02-02T11:50:55.698Z,99355.89
2019-02-02T11:52:00.300Z,99360.13
2019-02-02T11:53:05.439Z,99366.95
2019-02-02T11:54:10.570Z,99368.18
2019-02-02T11:55:16.240Z,99377.98
2019-02-02T11:56:21.029Z,99379.22
2019-02-02T11:57:25.819Z,99382.63
2019-02-02T11:58:30.578Z,99380.95
2019-02-02T11:59:35.354Z,99384.76
2019-02-02T12:00:41.962Z,99389.40
2019-02-02T12:01:46.424Z,99390.67
2019-02-02T12:02:51.824Z,99391.94
2019-02-02T12:03:56.931Z,99393.98
2019-02-02T12:05:01.803Z,99392.37
2019-02-02T12:06:06.959Z,99396.17
2019-02-02T12:07:12.110Z,99395.61
2019-02-02T12:08:17.016Z,99399.80
2019-02-02T12:09:22.442Z,99397.33
2019-02-02T12:10:27.790Z,99402.81
2019-02-02T12:11:32.977Z,99400.21
2019-02-02T12:12:38.495Z,99405.06
2019-02-02T12:13:43.310Z,99404.72
2019-02-02T12:14:48.696Z,99406.80
2019-02-02T12:15:53.880Z,99404.72
2019-02-02T12:16:59.220Z,99406.51
2019-02-02T12:18:03.740Z,99407.34
2019-02-02T12:19:08.500Z,99402.24
2019-02-02T12:20:14.737Z,99407.00
2019-02-02T12:21:20.223Z,99402.77
2019-02-02T12:22:24.710Z,99404.12
2019-02-02T12:23:29.493Z,99404.84
2019-02-02T12:24:34.464Z,99405.20
2019-02-02T12:25:39.321Z,99412.05
2019-02-02T12:26:44.204Z,99410.73
2019-02-02T12:27:49.435Z,99411.59
2019-02-02T12:28:54.566Z,99412.75
2019-02-02T12:29:59.726Z,99414.58
2019-02-02T12:31:04.206Z,99415.00
2019-02-02T12:32:08.982Z,99421.03
2019-02-02T12:33:13.895Z,99420.92
2019-02-02T12:34:18.975Z,99423.00
2019-02-02T12:35:25.441Z,99423.50
2019-02-02T12:36:30.228Z,99422.72
2019-02-02T12:37:35.104Z,99431.45
2019-02-02T12:38:40.035Z,99433.17
2019-02-02T12:39:44.774Z,99437.08
2019-02-02T12:40:50.366Z,99436.27
2019-02-02T12:41:55.132Z,99441.81
2019-02-02T12:42:59.711Z,99444.37
2019-02-02T12:44:04.854Z,99444.81
2019-02-02T12:45:13.042Z,99446.09
2019-02-02T12:46:17.565Z,99444.14
2019-02-02T12:47:23.060Z,99451.02